createdAt,value
2022-09-20T00:01:07.983Z,9.30
2022-09-20T00:03:36.411Z,9.20
2022-09-20T00:06:03.569Z,9.20
2022-09-20T00:08:30.312Z,9.30
2022-09-20T00:11:21.892Z,9.30
2022-09-20T00:13:50.466Z,9.30
2022-09-20T00:16:19.773Z,9.30
2022-09-20T00:18:53.545Z,9.20
2022-09-20T00:21:21.859Z,9.20
2022-09-20T00:23:48.701Z,9.20
2022-09-20T00:26:15.419Z,9.20
2022-09-20T00:28:42.384Z,9.20
2022-09-20T00:31:09.192Z,9.20
2022-09-20T00:33:54.281Z,9.20
2022-09-20T00:36:21.047Z,9.20
2022-09-20T00:38:47.775Z,9.20
2022-09-20T00:41:14.666Z,9.20
2022-09-20T00:43:44.977Z,9.20
2022-09-20T00:46:33.427Z,9.20
2022-09-20T00:49:04.890Z,9.20
2022-09-20T00:51:33.833Z,9.20
2022-09-20T00:54:01.641Z,9.20
2022-09-20T00:56:31.280Z,9.20
2022-09-20T00:59:00.961Z,9.20
2022-09-20T01:01:27.832Z,9.20
2022-09-20T01:03:54.604Z,9.20
2022-09-20T01:06:21.327Z,9.20
2022-09-20T01:08:49.613Z,9.30
2022-09-20T01:11:16.567Z,9.20
2022-09-20T01:13:43.443Z,9.20
2022-09-20T01:16:10.219Z,9.20
2022-09-20T01:18:36.992Z,9.20
2022-09-20T01:21:03.881Z,9.20
2022-09-20T01:23:46.163Z,9.20
2022-09-20T01:26:26.091Z,9.20
2022-09-20T01:29:09.401Z,9.20
2022-09-20T01:31:37.562Z,9.20
2022-09-20T01:34:08.634Z,9.30
2022-09-20T01:36:39.700Z,9.30
2022-09-20T01:39:30.063Z,9.30
2022-09-20T01:42:10.242Z,9.30
2022-09-20T01:44:46.261Z,9.30
2022-09-20T01:47:25.228Z,9.30
2022-09-20T01:49:58.215Z,9.30
2022-09-20T01:52:36.609Z,9.20
2022-09-20T01:55:34.222Z,9.30
2022-09-20T01:58:09.741Z,9.20
2022-09-20T02:00:51.361Z,9.20
2022-09-20T02:03:31.318Z,9.20
2022-09-20T02:06:16.011Z,9.20
2022-09-20T02:09:13.846Z,9.20
2022-09-20T02:11:43.258Z,9.20
2022-09-20T02:14:12.748Z,9.30
2022-09-20T02:16:56.696Z,9.30
2022-09-20T02:19:46.885Z,9.30
2022-09-20T02:22:40.098Z,9.30
2022-09-20T02:25:38.263Z,9.30
2022-09-20T02:28:19.675Z,9.30
2022-09-20T02:31:10.344Z,9.40
2022-09-20T02:33:52.025Z,9.40
2022-09-20T02:36:34.259Z,9.40
2022-09-20T02:39:17.565Z,9.30
2022-09-20T02:42:04.748Z,9.40
2022-09-20T02:44:37.850Z,9.40
2022-09-20T02:47:13.452Z,9.40
2022-09-20T02:49:52.315Z,9.40
2022-09-20T02:52:25.100Z,9.40
2022-09-20T02:54:54.115Z,9.40
2022-09-20T02:57:47.386Z,9.50
2022-09-20T03:00:37.501Z,9.50
2022-09-20T03:03:16.104Z,9.50
2022-09-20T03:05:57.786Z,9.50
2022-09-20T03:08:47.001Z,9.50
2022-09-20T03:11:38.483Z,9.50
2022-09-20T03:14:24.241Z,9.50
2022-09-20T03:17:14.836Z,9.50
2022-09-20T03:19:53.415Z,9.50
2022-09-20T03:22:31.896Z,9.50
2022-09-20T03:25:04.354Z,9.50
2022-09-20T03:27:55.528Z,9.50
2022-09-20T03:30:41.504Z,9.50
2022-09-20T03:33:22.554Z,9.50
2022-09-20T03:36:13.504Z,9.50
2022-09-20T03:38:40.152Z,9.50
2022-09-20T03:41:12.749Z,9.50
2022-09-20T03:43:57.977Z,9.60
2022-09-20T03:46:28.984Z,9.60
2022-09-20T03:49:04.866Z,9.70
2022-09-20T03:51:53.376Z,9.60
2022-09-20T03:54:46.290Z,9.60
2022-09-20T03:57:34.583Z,9.60
2022-09-20T04:00:30.775Z,9.50
2022-09-20T04:03:45.366Z,9.50
2022-09-20T04:06:33.150Z,9.50
2022-09-20T04:09:31.528Z,9.50
2022-09-20T04:12:07.571Z,9.60
2022-09-20T04:15:03.615Z,9.50
2022-09-20T04:17:41.478Z,9.50
2022-09-20T04:20:32.054Z,9.50
2022-09-20T04:23:01.365Z,9.40
2022-09-20T04:25:43.646Z,9.40
2022-09-20T04:28:19.785Z,9.40
2022-09-20T04:30:46.583Z,9.40
2022-09-20T04:33:23.272Z,9.30
2022-09-20T04:36:29.392Z,9.30
2022-09-20T04:39:02.103Z,9.30
2022-09-20T04:41:34.708Z,9.20
2022-09-20T04:44:33.771Z,9.20
2022-09-20T04:47:27.785Z,9.20
2022-09-20T04:50:12.352Z,9.20
2022-09-20T04:52:54.075Z,9.20
2022-09-20T04:55:41.082Z,9.20
2022-09-20T04:58:26.392Z,9.20
2022-09-20T05:01:19.745Z,9.20
2022-09-20T05:04:20.353Z,9.20
2022-09-20T05:07:16.768Z,9.20
2022-09-20T05:09:58.541Z,9.30
2022-09-20T05:12:54.600Z,9.30
2022-09-20T05:15:34.208Z,9.30
2022-09-20T05:18:34.729Z,9.30
2022-09-20T05:21:38.575Z,9.30
2022-09-20T05:24:19.763Z,9.30
2022-09-20T05:26:46.926Z,9.20
2022-09-20T05:29:35.115Z,9.30
2022-09-20T05:32:27.069Z,9.30
2022-09-20T05:35:06.817Z,9.30
2022-09-20T05:37:40.491Z,9.30
2022-09-20T05:40:26.128Z,9.30
2022-09-20T05:42:56.975Z,9.30
2022-09-20T05:45:37.626Z,9.30
2022-09-20T05:48:30.348Z,9.30
2022-09-20T05:51:09.943Z,9.30
2022-09-20T05:54:07.631Z,9.40
2022-09-20T05:56:36.089Z,9.40
2022-09-20T05:59:23.102Z,9.40
2022-09-20T06:02:17.084Z,9.40
2022-09-20T06:05:09.243Z,9.40
2022-09-20T06:07:54.583Z,9.50
2022-09-20T06:10:59.604Z,9.50
2022-09-20T06:13:33.589Z,9.50
2022-09-20T06:16:02.112Z,9.50
2022-09-20T06:18:50.291Z,9.50
2022-09-20T06:21:42.125Z,9.60
2022-09-20T06:24:22.048Z,9.60
2022-09-20T06:26:49.550Z,9.70
2022-09-20T06:29:16.235Z,9.70
2022-09-20T06:31:42.953Z,9.70
2022-09-20T06:34:10.875Z,9.70
2022-09-20T06:36:56.833Z,9.70
2022-09-20T06:40:00.706Z,9.70
2022-09-20T06:42:27.595Z,9.80
2022-09-20T06:44:54.742Z,9.70
2022-09-20T06:47:23.091Z,9.80
2022-09-20T06:49:50.239Z,9.80
2022-09-20T06:52:21.462Z,9.70
2022-09-20T06:54:54.227Z,9.80
2022-09-20T06:57:33.580Z,9.90
2022-09-20T07:00:00.339Z,9.90
2022-09-20T07:02:27.284Z,9.90
2022-09-20T07:04:55.361Z,9.90
2022-09-20T07:07:22.157Z,10.00
2022-09-20T07:09:48.849Z,10.10
2022-09-20T07:12:15.537Z,10.10
2022-09-20T07:14:43.038Z,10.20
2022-09-20T07:17:09.856Z,10.20
2022-09-20T07:19:36.771Z,10.30
2022-09-20T07:22:03.527Z,10.30
2022-09-20T07:24:32.284Z,10.30
2022-09-20T07:27:02.988Z,10.40
2022-09-20T07:29:29.857Z,10.40
2022-09-20T07:31:56.849Z,10.40
2022-09-20T07:34:24.029Z,10.50
2022-09-20T07:36:51.337Z,10.50
2022-09-20T07:39:18.127Z,10.60
2022-09-20T07:41:48.382Z,10.60
2022-09-20T07:44:22.037Z,10.60
2022-09-20T07:46:49.638Z,10.60
2022-09-20T07:49:16.451Z,10.70
2022-09-20T07:51:43.222Z,10.70
2022-09-20T07:54:09.966Z,10.70
2022-09-20T07:56:36.731Z,10.80
2022-09-20T07:59:03.630Z,10.80
2022-09-20T08:01:30.399Z,10.90
2022-09-20T08:03:57.552Z,10.90
2022-09-20T08:06:24.433Z,10.90
2022-09-20T08:08:51.747Z,10.90
2022-09-20T08:11:27.946Z,11.00
2022-09-20T08:14:10.524Z,11.00
2022-09-20T08:16:39.075Z,11.00
2022-09-20T08:19:05.813Z,11.10
2022-09-20T08:21:33.821Z,11.20
2022-09-20T08:24:00.856Z,11.20
2022-09-20T08:26:28.555Z,11.30
2022-09-20T08:28:57.043Z,11.30
2022-09-20T08:31:28.439Z,11.40
2022-09-20T08:33:55.514Z,11.50
2022-09-20T08:36:25.460Z,11.50
2022-09-20T08:41:55.650Z,11.60
2022-09-20T08:44:29.682Z,11.60
2022-09-20T08:47:18.886Z,11.70
2022-09-20T08:49:46.724Z,11.70
2022-09-20T08:52:22.296Z,11.70
2022-09-20T08:54:48.998Z,11.80
2022-09-20T08:57:17.290Z,11.80
2022-09-20T08:59:44.384Z,11.90
2022-09-20T09:02:16.491Z,12.10
2022-09-20T09:04:44.714Z,12.20
2022-09-20T09:07:15.379Z,12.30
2022-09-20T09:09:46.638Z,12.40
2022-09-20T09:12:26.270Z,12.50
2022-09-20T09:14:57.377Z,12.60
2022-09-20T09:17:28.344Z,12.70
2022-09-20T09:19:56.453Z,12.80
2022-09-20T09:22:39.669Z,12.80
2022-09-20T09:25:22.346Z,12.80
2022-09-20T09:28:00.309Z,12.90
2022-09-20T09:30:34.171Z,12.90
2022-09-20T09:33:19.744Z,12.90
2022-09-20T09:36:09.101Z,12.90
2022-09-20T09:38:37.900Z,12.90
2022-09-20T09:41:27.022Z,13.00
2022-09-20T09:44:00.447Z,13.00
2022-09-20T09:46:30.456Z,13.10
2022-09-20T09:49:10.667Z,13.10
2022-09-20T09:51:39.030Z,13.20
2022-09-20T09:54:05.812Z,13.30
2022-09-20T09:56:35.805Z,13.40
2022-09-20T09:59:12.695Z,13.40
2022-09-20T10:01:58.214Z,13.40
2022-09-20T10:04:51.903Z,13.40
2022-09-20T10:07:28.286Z,13.40
2022-09-20T10:10:19.769Z,13.40
2022-09-20T10:13:03.346Z,13.40
2022-09-20T10:15:48.168Z,13.40
2022-09-20T10:18:33.779Z,13.50
2022-09-20T10:21:12.758Z,13.50
2022-09-20T10:24:04.967Z,13.50
2022-09-20T10:26:50.634Z,13.50
2022-09-20T10:29:36.380Z,13.50
2022-09-20T10:32:21.888Z,13.30
2022-09-20T10:35:04.979Z,13.20
2022-09-20T10:38:02.477Z,13.10
2022-09-20T10:40:52.128Z,12.90
2022-09-20T10:44:05.108Z,12.80
2022-09-20T10:46:53.679Z,12.70
2022-09-20T10:49:35.953Z,12.70
2022-09-20T10:52:21.212Z,12.60
2022-09-20T10:55:11.500Z,12.70
2022-09-20T10:58:03.431Z,12.60
2022-09-20T11:00:48.238Z,12.40
2022-09-20T11:03:42.598Z,12.40
2022-09-20T11:06:48.350Z,12.60
2022-09-20T11:09:20.828Z,12.70
2022-09-20T11:11:55.956Z,12.90
2022-09-20T11:14:31.544Z,12.90
2022-09-20T11:17:17.768Z,12.90
2022-09-20T11:20:07.657Z,12.70
2022-09-20T11:22:48.248Z,12.70
2022-09-20T11:25:39.858Z,12.70
2022-09-20T11:28:19.327Z,12.60
2022-09-20T11:31:00.264Z,12.40
2022-09-20T11:33:33.081Z,12.30
2022-09-20T11:36:02.143Z,12.30
2022-09-20T11:39:03.536Z,12.20
2022-09-20T11:41:30.722Z,12.20
2022-09-20T11:44:08.435Z,12.30
2022-09-20T11:46:50.379Z,12.30
2022-09-20T11:49:38.113Z,12.30
2022-09-20T11:52:17.400Z,12.40
2022-09-20T11:54:50.835Z,12.40
2022-09-20T11:57:17.533Z,12.50
2022-09-20T11:59:51.028Z,12.50
2022-09-20T12:02:45.195Z,12.40
2022-09-20T12:05:35.869Z,12.50
2022-09-20T12:08:08.268Z,12.60
2022-09-20T12:10:37.712Z,12.60
2022-09-20T12:13:11.652Z,12.60
2022-09-20T12:15:39.411Z,12.50
2022-09-20T12:18:15.474Z,12.50
2022-09-20T12:20:45.027Z,12.50
2022-09-20T12:23:40.396Z,12.60
2022-09-20T12:26:20.300Z,12.60
2022-09-20T12:28:58.806Z,12.60
2022-09-20T12:31:26.292Z,12.50
2022-09-20T12:34:24.735Z,12.50
2022-09-20T12:36:54.311Z,12.50
2022-09-20T12:39:37.089Z,12.50
2022-09-20T12:42:05.693Z,12.60
2022-09-20T12:44:40.139Z,12.60
2022-09-20T12:47:10.562Z,12.60
2022-09-20T12:50:01.762Z,12.50
2022-09-20T12:52:50.679Z,12.50
2022-09-20T12:55:41.269Z,12.50
2022-09-20T12:58:16.930Z,12.50
2022-09-20T13:00:45.093Z,12.40
2022-09-20T13:03:31.923Z,12.40
2022-09-20T13:06:08.757Z,12.30
2022-09-20T13:09:01.639Z,12.10
2022-09-20T13:11:29.214Z,12.00
2022-09-20T13:14:06.523Z,11.90
2022-09-20T13:16:36.350Z,11.90
2022-09-20T13:19:30.494Z,12.00
2022-09-20T13:22:00.224Z,12.00
2022-09-20T13:24:28.753Z,12.00
2022-09-20T13:27:00.200Z,12.00
2022-09-20T13:29:30.735Z,12.10
2022-09-20T13:32:14.580Z,12.10
2022-09-20T13:34:41.448Z,12.10
2022-09-20T13:37:26.442Z,12.10
2022-09-20T13:39:54.700Z,12.20
2022-09-20T13:42:21.485Z,12.20
2022-09-20T13:44:48.469Z,12.20
2022-09-20T13:47:29.263Z,12.20
2022-09-20T13:50:22.072Z,12.30
2022-09-20T13:52:51.565Z,12.30
2022-09-20T13:55:25.081Z,12.40
2022-09-20T13:57:53.070Z,12.40
2022-09-20T14:00:19.934Z,12.50
2022-09-20T14:02:48.430Z,12.50
2022-09-20T14:05:19.287Z,12.50
2022-09-20T14:07:46.880Z,12.60
2022-09-20T14:10:35.897Z,12.60
2022-09-20T14:13:04.864Z,12.60
2022-09-20T14:15:35.910Z,12.60
2022-09-20T14:18:04.661Z,12.70
2022-09-20T14:20:32.007Z,12.60
2022-09-20T14:22:59.326Z,12.50
2022-09-20T14:25:26.571Z,12.50
2022-09-20T14:28:18.736Z,12.50
2022-09-20T14:30:45.977Z,12.60
2022-09-20T14:33:18.787Z,12.50
2022-09-20T14:35:49.511Z,12.50
2022-09-20T14:38:16.409Z,12.50
2022-09-20T14:40:44.824Z,12.50
2022-09-20T14:43:42.244Z,12.50
2022-09-20T14:46:16.261Z,12.60
2022-09-20T14:48:43.098Z,12.60
2022-09-20T14:51:11.671Z,12.60
2022-09-20T14:53:38.452Z,12.60
2022-09-20T14:56:05.141Z,12.60
2022-09-20T14:58:32.227Z,12.60
2022-09-20T15:01:02.653Z,12.50
2022-09-20T15:03:31.057Z,12.40
2022-09-20T15:05:57.795Z,12.30
2022-09-20T15:08:24.789Z,12.30
2022-09-20T15:10:51.949Z,12.30
2022-09-20T15:13:18.943Z,12.30
2022-09-20T15:15:50.002Z,12.40
2022-09-20T15:18:21.804Z,12.40
2022-09-20T15:20:51.556Z,12.40
2022-09-20T15:23:18.388Z,12.40
2022-09-20T15:25:45.335Z,12.40
2022-09-20T15:28:17.263Z,12.40
2022-09-20T15:30:48.037Z,12.50
2022-09-20T15:33:14.767Z,12.50
2022-09-20T15:35:41.869Z,12.50
2022-09-20T15:38:11.180Z,12.50
2022-09-20T15:40:41.784Z,12.50
2022-09-20T15:43:11.724Z,12.50
2022-09-20T15:45:49.402Z,12.50
2022-09-20T15:48:22.362Z,12.40
2022-09-20T15:51:04.148Z,12.30
2022-09-20T15:53:31.948Z,12.30
2022-09-20T15:56:01.305Z,12.30
2022-09-20T15:58:33.514Z,12.30
2022-09-20T16:01:06.956Z,12.30
2022-09-20T16:03:36.960Z,12.20
2022-09-20T16:06:07.361Z,12.20
2022-09-20T16:08:38.660Z,12.20
2022-09-20T16:11:06.281Z,12.20
2022-09-20T16:13:33.100Z,12.10
2022-09-20T16:16:01.001Z,12.10
2022-09-20T16:18:46.768Z,12.20
2022-09-20T16:21:16.076Z,12.10
2022-09-20T16:23:46.806Z,12.10
2022-09-20T16:26:13.596Z,12.10
2022-09-20T16:28:45.159Z,12.10
2022-09-20T16:31:51.022Z,12.10
2022-09-20T16:34:22.558Z,12.10
2022-09-20T16:36:50.921Z,12.10
2022-09-20T16:39:18.288Z,12.00
2022-09-20T16:41:48.533Z,12.00
2022-09-20T16:44:15.629Z,12.00
2022-09-20T16:46:42.356Z,12.00
2022-09-20T16:49:11.551Z,12.00
2022-09-20T16:51:41.656Z,11.90
2022-09-20T16:54:12.761Z,11.90
2022-09-20T16:56:44.609Z,11.90
2022-09-20T16:59:11.686Z,11.90
2022-09-20T17:01:39.300Z,11.90
2022-09-20T17:04:06.656Z,11.80
2022-09-20T17:06:34.480Z,11.80
2022-09-20T17:09:01.396Z,11.80
2022-09-20T17:11:29.643Z,11.70
2022-09-20T17:13:57.127Z,11.60
2022-09-20T17:16:31.547Z,11.60
2022-09-20T17:19:18.576Z,11.50
2022-09-20T17:21:49.316Z,11.50
2022-09-20T17:24:17.384Z,11.50
2022-09-20T17:26:45.355Z,11.40
2022-09-20T17:29:16.285Z,11.40
2022-09-20T17:31:48.724Z,11.30
2022-09-20T17:34:18.814Z,11.20
2022-09-20T17:36:46.036Z,11.20
2022-09-20T17:39:13.523Z,11.20
2022-09-20T17:41:45.271Z,11.20
2022-09-20T17:44:12.350Z,11.20
2022-09-20T17:46:40.280Z,11.20
2022-09-20T17:49:08.714Z,11.10
2022-09-20T17:51:43.628Z,11.10
2022-09-20T17:54:13.773Z,11.00
2022-09-20T17:56:50.918Z,11.00
2022-09-20T17:59:18.220Z,10.90
2022-09-20T18:01:46.335Z,10.90
2022-09-20T18:04:13.124Z,10.90
2022-09-20T18:06:43.804Z,10.80
2022-09-20T18:09:11.989Z,10.80
2022-09-20T18:11:45.313Z,10.70
2022-09-20T18:14:13.321Z,10.70
2022-09-20T18:16:40.407Z,10.60
2022-09-20T18:19:07.759Z,10.60
2022-09-20T18:21:36.031Z,10.60
2022-09-20T18:24:06.117Z,10.50
2022-09-20T18:26:35.379Z,10.50
2022-09-20T18:29:16.707Z,10.50
2022-09-20T18:31:50.887Z,10.40
2022-09-20T18:34:20.751Z,10.40
2022-09-20T18:36:52.586Z,10.40
2022-09-20T18:39:26.308Z,10.40
2022-09-20T18:41:53.341Z,10.40
2022-09-20T18:44:20.607Z,10.40
2022-09-20T18:46:47.420Z,10.40
2022-09-20T18:49:15.129Z,10.30
2022-09-20T18:51:42.591Z,10.00
2022-09-20T18:54:10.559Z,9.70
2022-09-20T18:56:38.682Z,9.60
2022-09-20T18:59:13.643Z,9.50
2022-09-20T19:01:55.722Z,9.40
2022-09-20T19:04:40.395Z,9.50
2022-09-20T19:07:19.220Z,9.60
2022-09-20T19:10:22.394Z,9.50
2022-09-20T19:13:15.824Z,9.60
2022-09-20T19:15:51.474Z,9.70
2022-09-20T19:18:30.092Z,9.60
2022-09-20T19:21:11.837Z,9.50
2022-09-20T19:24:03.425Z,9.60
2022-09-20T19:26:31.636Z,9.60
2022-09-20T19:29:00.020Z,9.60
2022-09-20T19:31:27.718Z,9.50
2022-09-20T19:33:55.474Z,9.50
2022-09-20T19:36:26.499Z,9.50
2022-09-20T19:39:16.323Z,9.60
2022-09-20T19:41:45.158Z,9.50
2022-09-20T19:44:58.916Z,9.50
2022-09-20T19:48:02.438Z,9.50
2022-09-20T19:50:33.540Z,9.50
2022-09-20T19:53:04.116Z,9.50
2022-09-20T19:55:32.306Z,9.60
2022-09-20T19:57:59.446Z,9.60
2022-09-20T20:00:26.320Z,9.60
2022-09-20T20:02:54.027Z,9.60
2022-09-20T20:05:25.488Z,9.60
2022-09-20T20:08:10.753Z,9.60
2022-09-20T20:10:49.753Z,9.70
2022-09-20T20:13:40.487Z,9.60
2022-09-20T20:16:11.485Z,9.60
2022-09-20T20:19:06.718Z,9.70
2022-09-20T20:21:52.954Z,9.70
2022-09-20T20:24:30.920Z,9.70
2022-09-20T20:26:57.667Z,9.70
2022-09-20T20:29:24.452Z,9.60
2022-09-20T20:31:51.147Z,9.60
2022-09-20T20:34:17.947Z,9.50
2022-09-20T20:36:44.661Z,9.60
2022-09-20T20:39:11.824Z,9.60
2022-09-20T20:41:39.414Z,9.60
2022-09-20T20:44:06.336Z,9.60
2022-09-20T20:46:34.192Z,9.60
2022-09-20T20:49:01.615Z,9.60
2022-09-20T20:51:28.444Z,9.70
2022-09-20T20:53:55.391Z,9.60
2022-09-20T20:56:27.534Z,9.60
2022-09-20T20:58:54.569Z,9.60
2022-09-20T21:01:45.996Z,9.70
2022-09-20T21:04:13.167Z,9.60
2022-09-20T21:06:43.156Z,9.60
2022-09-20T21:09:10.360Z,9.60
2022-09-20T21:11:38.628Z,9.70
2022-09-20T21:14:06.630Z,9.70
2022-09-20T21:16:35.722Z,9.70
2022-09-20T21:19:02.688Z,9.70
2022-09-20T21:21:35.017Z,9.70
2022-09-20T21:24:06.691Z,9.70
2022-09-20T21:26:34.324Z,9.70
2022-09-20T21:29:02.284Z,9.60
2022-09-20T21:31:30.599Z,9.60
2022-09-20T21:33:57.341Z,9.60
2022-09-20T21:36:25.861Z,9.50
2022-09-20T21:38:52.595Z,9.50
2022-09-20T21:41:23.976Z,9.60
2022-09-20T21:43:55.490Z,9.50
2022-09-20T21:46:24.258Z,9.50
2022-09-20T21:48:51.381Z,9.60
2022-09-20T21:51:19.277Z,9.60
2022-09-20T21:53:47.366Z,9.60
2022-09-20T21:56:16.213Z,9.50
2022-09-20T21:58:43.267Z,9.60
2022-09-20T22:01:11.789Z,9.50
2022-09-20T22:03:45.647Z,9.50
2022-09-20T22:06:13.208Z,9.60
2022-09-20T22:08:42.322Z,9.60
2022-09-20T22:11:13.510Z,9.50
2022-09-20T22:13:42.956Z,9.50
2022-09-20T22:16:11.982Z,9.50
2022-09-20T22:18:39.678Z,9.50
2022-09-20T22:21:11.181Z,9.40
2022-09-20T22:23:38.044Z,9.40
2022-09-20T22:26:10.501Z,9.40
2022-09-20T22:28:37.348Z,9.40
2022-09-20T22:31:14.968Z,9.40
2022-09-20T22:33:46.264Z,9.40
2022-09-20T22:36:15.501Z,9.40
2022-09-20T22:38:42.959Z,9.40
2022-09-20T22:41:10.022Z,9.40
2022-09-20T22:43:37.359Z,9.40
2022-09-20T22:46:11.793Z,9.40
2022-09-20T22:48:39.207Z,9.40
2022-09-20T22:51:07.663Z,9.20
2022-09-20T22:53:34.560Z,9.10
2022-09-20T22:56:08.378Z,9.10
2022-09-20T22:58:39.457Z,9.10
2022-09-20T23:01:27.373Z,9.10
2022-09-20T23:03:56.249Z,9.10
2022-09-20T23:06:31.044Z,9.10
2022-09-20T23:08:59.674Z,9.00
2022-09-20T23:11:27.069Z,9.00
2022-09-20T23:13:55.138Z,9.00
2022-09-20T23:16:26.273Z,9.00
2022-09-20T23:18:53.523Z,8.90
2022-09-20T23:21:20.382Z,9.00
2022-09-20T23:23:47.780Z,9.00
2022-09-20T23:26:16.121Z,9.00
2022-09-20T23:28:44.078Z,8.90
2022-09-20T23:31:13.850Z,8.90
2022-09-20T23:33:43.625Z,8.90
2022-09-20T23:36:13.290Z,8.90
2022-09-20T23:38:39.963Z,8.90
2022-09-20T23:41:07.752Z,8.80
2022-09-20T23:43:35.200Z,8.80
2022-09-20T23:46:02.361Z,8.80
2022-09-20T23:48:29.150Z,8.80
2022-09-20T23:50:56.045Z,8.70
2022-09-20T23:53:23.062Z,8.70
2022-09-20T23:55:50.056Z,8.70
2022-09-20T23:58:16.999Z,8.70
